Hals, Denmark
Current Conditions -  °F | °C
As of 3:27 PM on Thursday 18 Dec 2014 (Local Time) from EKYT Reporting Station
Light Rain Light Rain  
Wind Chill: 43°   Ceiling: 500
Heat Index: 48°   Visibility: 0.87mi
Dew Point: 46°   Wind: 14mph
Humidity: 93%   Direction: 230°SW
Pressure: 29.32"   Gusts: NA
Location:  57°N, 10.31°E
Report Text: EKYT 181427Z 23012KT 1400 R08/P1500N R26/P1500N -DZRABR FEW002 SCT004 OVC005 09/08 Q0993
Loading
Personal Weather Stations






























Interactive Weather Map New forecast layout! Learn more

10-Day Weather Forecast

Advertisements
Track Severe Weather on mobile